sensor_id;sensor_type;location;lat;lon;timestamp;pressure;altitude;pressure_sealevel;temperature;humidity
71145;BME280;58812;47.698;17.726;2023-07-13T02:13:29;99860.69;;;18.83;100.00
71145;BME280;58812;47.698;17.726;2023-07-13T02:15:55;99860.28;;;18.79;100.00
71145;BME280;58812;47.698;17.726;2023-07-13T02:18:20;99863.00;;;18.79;100.00
71145;BME280;58812;47.698;17.726;2023-07-13T02:20:45;99862.38;;;18.77;100.00
71145;BME280;58812;47.698;17.726;2023-07-13T02:23:11;99876.97;;;18.83;100.00
71145;BME280;58812;47.698;17.726;2023-07-13T02:25:37;99877.41;;;18.86;100.00
71145;BME280;58812;47.698;17.726;2023-07-13T02:28:02;99867.78;;;18.90;100.00
71145;BME280;58812;47.698;17.726;2023-07-13T02:30:28;99864.66;;;18.87;100.00
71145;BME280;58812;47.698;17.726;2023-07-13T02:32:56;99873.19;;;18.90;100.00
71145;BME280;58812;47.698;17.726;2023-07-13T02:35:21;99876.12;;;18.89;100.00
71145;BME280;58812;47.698;17.726;2023-07-13T02:37:47;99883.66;;;18.80;100.00
71145;BME280;58812;47.698;17.726;2023-07-13T02:40:12;99867.59;;;18.92;100.00
71145;BME280;58812;47.698;17.726;2023-07-13T02:42:38;99870.28;;;18.99;100.00
71145;BME280;58812;47.698;17.726;2023-07-13T02:45:04;99871.09;;;19.06;100.00
71145;BME280;58812;47.698;17.726;2023-07-13T02:47:32;99859.22;;;19.07;100.00
71145;BME280;58812;47.698;17.726;2023-07-13T02:49:57;99864.22;;;19.10;100.00
71145;BME280;58812;47.698;17.726;2023-07-13T02:52:22;99872.56;;;19.02;100.00
71145;BME280;58812;47.698;17.726;2023-07-13T02:54:48;99898.25;;;18.99;100.00
71145;BME280;58812;47.698;17.726;2023-07-13T02:57:13;99912.88;;;18.98;100.00
71145;BME280;58812;47.698;17.726;2023-07-13T02:59:39;99922.47;;;18.94;100.00
71145;BME280;58812;47.698;17.726;2023-07-13T03:02:04;99925.78;;;18.96;100.00
71145;BME280;58812;47.698;17.726;2023-07-13T03:04:30;99927.88;;;18.94;100.00
71145;BME280;58812;47.698;17.726;2023-07-13T03:06:55;99942.06;;;18.89;100.00
71145;BME280;58812;47.698;17.726;2023-07-13T03:09:24;99950.41;;;18.88;100.00
71145;BME280;58812;47.698;17.726;2023-07-13T03:11:52;99959.16;;;18.90;100.00
71145;BME280;58812;47.698;17.726;2023-07-13T03:14:17;99976.28;;;18.90;100.00
71145;BME280;58812;47.698;17.726;2023-07-13T03:16:43;99975.88;;;19.00;100.00
71145;BME280;58812;47.698;17.726;2023-07-13T03:19:08;99968.34;;;19.09;100.00
71145;BME280;58812;47.698;17.726;2023-07-13T03:21:34;99963.78;;;19.16;100.00
71145;BME280;58812;47.698;17.726;2023-07-13T03:23:59;99975.47;;;19.23;100.00
71145;BME280;58812;47.698;17.726;2023-07-13T03:26:25;99975.03;;;19.26;100.00
71145;BME280;58812;47.698;17.726;2023-07-13T03:28:50;99991.28;;;19.33;100.00
71145;BME280;58812;47.698;17.726;2023-07-13T03:31:18;100006.97;;;19.37;100.00
71145;BME280;58812;47.698;17.726;2023-07-13T03:33:44;100013.66;;;19.35;100.00
71145;BME280;58812;47.698;17.726;2023-07-13T03:36:14;100024.28;;;19.36;100.00
71145;BME280;58812;47.698;17.726;2023-07-13T03:38:41;100039.97;;;19.41;100.00
71145;BME280;58812;47.698;17.726;2023-07-13T03:41:06;100056.03;;;19.36;100.00
71145;BME280;58812;47.698;17.726;2023-07-13T03:43:32;100076.91;;;19.29;100.00
71145;BME280;58812;47.698;17.726;2023-07-13T03:45:57;100091.53;;;19.34;100.00
71145;BME280;58812;47.698;17.726;2023-07-13T03:48:23;100103.03;;;19.43;100.00
71145;BME280;58812;47.698;17.726;2023-07-13T03:50:48;100112.84;;;19.44;100.00
71145;BME280;58812;47.698;17.726;2023-07-13T03:53:15;100118.91;;;19.46;100.00
71145;BME280;58812;47.698;17.726;2023-07-13T03:55:40;100127.22;;;19.44;100.00
71145;BME280;58812;47.698;17.726;2023-07-13T03:58:29;100135.19;;;19.39;100.00
71145;BME280;58812;47.698;17.726;2023-07-13T04:00:55;100140.19;;;19.42;100.00
71145;BME280;58812;47.698;17.726;2023-07-13T04:03:21;100146.06;;;19.39;100.00
71145;BME280;58812;47.698;17.726;2023-07-13T04:05:47;100145.00;;;19.34;100.00
71145;BME280;58812;47.698;17.726;2023-07-13T04:08:13;100163.78;;;19.35;100.00
71145;BME280;58812;47.698;17.726;2023-07-13T04:10:38;100166.50;;;19.35;100.00
71145;BME280;58812;47.698;17.726;2023-07-13T04:13:04;100176.75;;;19.33;100.00
71145;BME280;58812;47.698;17.726;2023-07-13T04:15:31;100191.75;;;19.29;100.00
71145;BME280;58812;47.698;17.726;2023-07-13T04:17:56;100206.75;;;19.25;100.00
71145;BME280;58812;47.698;17.726;2023-07-13T04:20:22;100226.81;;;19.24;100.00
71145;BME280;58812;47.698;17.726;2023-07-13T04:22:49;100244.13;;;19.23;100.00
71145;BME280;58812;47.698;17.726;2023-07-13T04:25:14;100253.50;;;19.20;100.00
71145;BME280;58812;47.698;17.726;2023-07-13T04:27:39;100255.16;;;19.15;100.00
71145;BME280;58812;47.698;17.726;2023-07-13T04:30:06;100268.53;;;19.10;100.00
71145;BME280;58812;47.698;17.726;2023-07-13T04:32:33;100282.25;;;19.02;100.00
71145;BME280;58812;47.698;17.726;2023-07-13T04:34:59;100272.50;;;18.79;100.00
71145;BME280;58812;47.698;17.726;2023-07-13T04:37:25;100269.59;;;18.74;100.00
71145;BME280;58812;47.698;17.726;2023-07-13T04:39:51;100272.91;;;18.70;100.00
71145;BME280;58812;47.698;17.726;2023-07-13T04:42:17;100258.50;;;18.69;100.00
71145;BME280;58812;47.698;17.726;2023-07-13T04:44:48;100255.31;;;18.65;100.00
71145;BME280;58812;47.698;17.726;2023-07-13T04:47:14;100251.50;;;18.60;100.00
71145;BME280;58812;47.698;17.726;2023-07-13T04:49:39;100257.37;;;18.63;100.00
71145;BME280;58812;47.698;17.726;2023-07-13T04:52:05;100243.00;;;18.63;100.00
71145;BME280;58812;47.698;17.726;2023-07-13T04:54:32;100234.75;;;18.50;100.00
71145;BME280;58812;47.698;17.726;2023-07-13T04:56:58;100213.47;;;18.47;100.00
71145;BME280;58812;47.698;17.726;2023-07-13T04:59:23;100206.41;;;18.46;100.00
71145;BME280;58812;47.698;17.726;2023-07-13T05:01:49;100205.09;;;18.41;100.00
71145;BME280;58812;47.698;17.726;2023-07-13T05:04:14;100195.50;;;18.39;100.00
71145;BME280;58812;47.698;17.726;2023-07-13T05:06:39;100190.50;;;18.42;100.00
71145;BME280;58812;47.698;17.726;2023-07-13T05:09:05;100182.13;;;18.37;100.00
71145;BME280;58812;47.698;17.726;2023-07-13T05:11:32;100161.34;;;18.45;100.00
71145;BME280;58812;47.698;17.726;2023-07-13T05:13:57;100128.37;;;18.41;100.00
71145;BME280;58812;47.698;17.726;2023-07-13T05:16:23;100070.44;;;18.49;100.00
71145;BME280;58812;47.698;17.726;2023-07-13T05:18:48;99970.34;;;18.40;100.00
71145;BME280;58812;47.698;17.726;2023-07-13T05:21:14;99773.72;;;18.25;100.00
71145;BME280;58812;47.698;17.726;2023-07-13T05:23:40;99603.69;;;18.07;100.00
71145;BME280;58812;47.698;17.726;2023-07-13T05:26:08;99550.63;;;17.93;100.00
71145;BME280;58812;47.698;17.726;2023-07-13T05:28:34;99565.00;;;17.86;100.00
71145;BME280;58812;47.698;17.726;2023-07-13T05:30:59;99581.47;;;17.85;100.00
71145;BME280;58812;47.698;17.726;2023-07-13T05:33:26;99639.16;;;17.92;100.00
71145;BME280;58812;47.698;17.726;2023-07-13T05:35:51;99711.66;;;18.03;100.00
71145;BME280;58812;47.698;17.726;2023-07-13T05:38:17;99779.78;;;18.13;100.00
71145;BME280;58812;47.698;17.726;2023-07-13T05:40:46;99811.88;;;18.23;100.00
71145;BME280;58812;47.698;17.726;2023-07-13T05:43:12;99833.56;;;18.36;100.00
71145;BME280;58812;47.698;17.726;2023-07-13T05:45:38;99838.97;;;18.43;100.00
71145;BME280;58812;47.698;17.726;2023-07-13T05:48:03;99859.84;;;18.56;100.00
71145;BME280;58812;47.698;17.726;2023-07-13T05:50:29;99867.78;;;18.64;100.00
71145;BME280;58812;47.698;17.726;2023-07-13T05:52:54;99891.16;;;18.85;100.00
71145;BME280;58812;47.698;17.726;2023-07-13T05:55:20;99901.56;;;19.01;100.00
71145;BME280;58812;47.698;17.726;2023-07-13T05:57:46;99924.53;;;19.12;100.00
71145;BME280;58812;47.698;17.726;2023-07-13T06:00:12;99948.94;;;19.18;100.00
71145;BME280;58812;47.698;17.726;2023-07-13T06:02:38;99977.09;;;19.37;100.00
71145;BME280;58812;47.698;17.726;2023-07-13T06:05:03;99996.06;;;19.51;100.00
71145;BME280;58812;47.698;17.726;2023-07-13T06:07:30;100015.53;;;19.61;100.00
71145;BME280;58812;47.698;17.726;2023-07-13T06:09:55;100023.87;;;19.72;100.00
71145;BME280;58812;47.698;17.726;2023-07-13T06:12:21;100030.94;;;19.93;100.00
71145;BME280;58812;47.698;17.726;2023-07-13T06:14:46;100038.41;;;20.11;100.00
71145;BME280;58812;47.698;17.726;2023-07-13T06:17:12;100046.78;;;20.61;100.00
71145;BME280;58812;47.698;17.726;2023-07-13T06:19:37;100051.50;;;20.79;100.00
71145;BME280;58812;47.698;17.726;2023-07-13T06:22:03;100067.13;;;20.45;100.00
71145;BME280;58812;47.698;17.726;2023-07-13T06:24:32;100066.00;;;20.66;100.00
71145;BME280;58812;47.698;17.726;2023-07-13T06:27:04;100067.75;;;21.24;100.00
71145;BME280;58812;47.698;17.726;2023-07-13T06:29:29;100062.00;;;21.82;100.00
71145;BME280;58812;47.698;17.726;2023-07-13T06:31:55;100077.72;;;22.60;100.00
71145;BME280;58812;47.698;17.726;2023-07-13T06:34:20;100073.50;;;22.76;100.00
71145;BME280;58812;47.698;17.726;2023-07-13T06:36:46;100079.78;;;22.09;100.00
71145;BME280;58812;47.698;17.726;2023-07-13T06:39:12;100083.41;;;22.40;100.00
71145;BME280;58812;47.698;17.726;2023-07-13T06:41:37;100083.88;;;22.85;100.00
71145;BME280;58812;47.698;17.726;2023-07-13T06:44:04;100086.69;;;22.97;95.93
71145;BME280;58812;47.698;17.726;2023-07-13T06:46:30;100084.06;;;23.32;96.48
71145;BME280;58812;47.698;17.726;2023-07-13T06:48:56;100079.81;;;23.60;94.88
71145;BME280;58812;47.698;17.726;2023-07-13T06:51:21;100086.50;;;23.64;92.38
71145;BME280;58812;47.698;17.726;2023-07-13T06:53:47;100087.91;;;23.55;89.39
71145;BME280;58812;47.698;17.726;2023-07-13T06:56:12;100089.62;;;23.26;94.17
71145;BME280;58812;47.698;17.726;2023-07-13T06:58:38;100096.47;;;23.16;94.62
71145;BME280;58812;47.698;17.726;2023-07-13T07:01:04;100103.16;;;24.09;90.52
71145;BME280;58812;47.698;17.726;2023-07-13T07:03:30;100101.25;;;24.10;87.36
71145;BME280;58812;47.698;17.726;2023-07-13T07:06:22;100105.19;;;24.02;87.36
71145;BME280;58812;47.698;17.726;2023-07-13T07:08:51;100110.03;;;24.23;86.62
71145;BME280;58812;47.698;17.726;2023-07-13T07:11:22;100112.50;;;24.48;85.90
71145;BME280;58812;47.698;17.726;2023-07-13T07:13:48;100111.84;;;24.70;82.90
71145;BME280;58812;47.698;17.726;2023-07-13T07:16:14;100107.72;;;24.67;82.58
71145;BME280;58812;47.698;17.726;2023-07-13T07:18:40;100121.91;;;24.93;81.73
71145;BME280;58812;47.698;17.726;2023-07-13T07:21:05;100114.75;;;24.92;80.91
71145;BME280;58812;47.698;17.726;2023-07-13T07:23:31;100120.16;;;25.77;78.25
71145;BME280;58812;47.698;17.726;2023-07-13T07:25:56;100125.19;;;25.52;78.44
71145;BME280;58812;47.698;17.726;2023-07-13T07:28:22;100125.81;;;25.25;77.51
71145;BME280;58812;47.698;17.726;2023-07-13T07:30:48;100123.88;;;26.05;77.41
71145;BME280;58812;47.698;17.726;2023-07-13T07:33:14;100127.34;;;26.56;73.40
71145;BME280;58812;47.698;17.726;2023-07-13T07:35:42;100128.78;;;26.85;73.77
71145;BME280;58812;47.698;17.726;2023-07-13T07:38:07;100126.19;;;26.13;74.13
71145;BME280;58812;47.698;17.726;2023-07-13T07:40:37;100127.22;;;25.73;75.65
71145;BME280;58812;47.698;17.726;2023-07-13T07:43:02;100123.66;;;26.28;72.73
71145;BME280;58812;47.698;17.726;2023-07-13T07:45:28;100124.66;;;26.83;72.73
71145;BME280;58812;47.698;17.726;2023-07-13T07:47:53;100125.69;;;25.66;75.04
71145;BME280;58812;47.698;17.726;2023-07-13T07:50:20;100122.00;;;26.27;71.36
71145;BME280;58812;47.698;17.726;2023-07-13T07:52:45;100117.44;;;26.99;70.86
71145;BME280;58812;47.698;17.726;2023-07-13T07:55:11;100125.06;;;26.97;70.13
71145;BME280;58812;47.698;17.726;2023-07-13T07:57:36;100110.09;;;26.00;73.57
71145;BME280;58812;47.698;17.726;2023-07-13T08:00:02;100118.47;;;26.10;72.86
71145;BME280;58812;47.698;17.726;2023-07-13T08:02:28;100117.06;;;25.91;75.11
71145;BME280;58812;47.698;17.726;2023-07-13T08:04:53;100124.53;;;25.95;74.89
71145;BME280;58812;47.698;17.726;2023-07-13T08:07:18;100122.97;;;25.82;74.38
71145;BME280;58812;47.698;17.726;2023-07-13T08:09:44;100120.91;;;24.99;78.24
71145;BME280;58812;47.698;17.726;2023-07-13T08:12:09;100115.56;;;25.33;78.00
71145;BME280;58812;47.698;17.726;2023-07-13T08:14:35;100116.56;;;26.10;74.45
71145;BME280;58812;47.698;17.726;2023-07-13T08:17:00;100117.81;;;26.42;69.87
71145;BME280;58812;47.698;17.726;2023-07-13T08:19:25;100120.53;;;26.80;71.43
71145;BME280;58812;47.698;17.726;2023-07-13T08:21:51;100116.62;;;27.25;67.11
71145;BME280;58812;47.698;17.726;2023-07-13T08:24:16;100116.53;;;26.49;68.34
71145;BME280;58812;47.698;17.726;2023-07-13T08:26:44;100116.06;;;26.74;68.27
71145;BME280;58812;47.698;17.726;2023-07-13T08:29:10;100113.69;;;27.37;65.86
71145;BME280;58812;47.698;17.726;2023-07-13T08:31:36;100118.63;;;26.86;66.84
71145;BME280;58812;47.698;17.726;2023-07-13T08:34:01;100120.69;;;27.50;66.91
71145;BME280;58812;47.698;17.726;2023-07-13T08:36:27;100118.47;;;27.47;64.46
71145;BME280;58812;47.698;17.726;2023-07-13T08:38:53;100126.22;;;27.55;64.59
71145;BME280;58812;47.698;17.726;2023-07-13T08:41:18;100127.16;;;26.24;67.31
71145;BME280;58812;47.698;17.726;2023-07-13T08:43:50;100118.09;;;27.38;65.83
71145;BME280;58812;47.698;17.726;2023-07-13T08:49:17;100126.97;;;27.45;62.11
71145;BME280;58812;47.698;17.726;2023-07-13T08:51:47;100119.84;;;28.66;58.54
71145;BME280;58812;47.698;17.726;2023-07-13T08:54:32;100128.69;;;27.83;59.22
71145;BME280;58812;47.698;17.726;2023-07-13T08:57:01;100119.25;;;27.42;59.54
71145;BME280;58812;47.698;17.726;2023-07-13T08:59:30;100135.84;;;27.25;57.72
71145;BME280;58812;47.698;17.726;2023-07-13T09:04:36;100130.34;;;27.84;57.33
71145;BME280;58812;47.698;17.726;2023-07-13T09:15:26;100139.94;;;28.61;54.55
71145;BME280;58812;47.698;17.726;2023-07-13T09:17:57;100135.31;;;28.25;54.07
71145;BME280;58812;47.698;17.726;2023-07-13T09:20:32;100136.19;;;27.61;56.00
71145;BME280;58812;47.698;17.726;2023-07-13T09:23:01;100132.66;;;28.40;54.34
71145;BME280;58812;47.698;17.726;2023-07-13T09:25:33;100140.69;;;28.46;54.93
71145;BME280;58812;47.698;17.726;2023-07-13T09:28:16;100147.09;;;27.78;56.59
71145;BME280;58812;47.698;17.726;2023-07-13T09:33:09;100154.81;;;28.60;53.55
71145;BME280;58812;47.698;17.726;2023-07-13T09:35:34;100156.94;;;28.48;55.87
71145;BME280;58812;47.698;17.726;2023-07-13T09:38:16;100148.53;;;28.80;54.30
71145;BME280;58812;47.698;17.726;2023-07-13T09:43:17;100151.44;;;29.06;52.77
71145;BME280;58812;47.698;17.726;2023-07-13T09:45:46;100150.88;;;28.51;54.18
71145;BME280;58812;47.698;17.726;2023-07-13T09:48:14;100155.75;;;28.91;53.81
71145;BME280;58812;47.698;17.726;2023-07-13T09:50:41;100149.75;;;28.94;53.67
71145;BME280;58812;47.698;17.726;2023-07-13T09:53:15;100147.12;;;29.61;53.60
71145;BME280;58812;47.698;17.726;2023-07-13T09:55:43;100145.09;;;29.15;52.45
71145;BME280;58812;47.698;17.726;2023-07-13T09:58:10;100158.16;;;29.81;51.44
71145;BME280;58812;47.698;17.726;2023-07-13T10:00:37;100151.25;;;29.84;51.10
71145;BME280;58812;47.698;17.726;2023-07-13T10:03:17;100153.44;;;29.82;51.47
71145;BME280;58812;47.698;17.726;2023-07-13T10:05:45;100147.66;;;30.14;51.06
71145;BME280;58812;47.698;17.726;2023-07-13T10:08:28;100155.87;;;30.44;50.16
71145;BME280;58812;47.698;17.726;2023-07-13T10:11:14;100151.25;;;30.14;50.07
71145;BME280;58812;47.698;17.726;2023-07-13T10:13:53;100146.00;;;29.87;51.36
71145;BME280;58812;47.698;17.726;2023-07-13T10:16:28;100147.91;;;30.22;50.93
71145;BME280;58812;47.698;17.726;2023-07-13T10:18:59;100151.03;;;31.40;48.88
71145;BME280;58812;47.698;17.726;2023-07-13T10:21:39;100141.84;;;31.84;48.13
71145;BME280;58812;47.698;17.726;2023-07-13T10:24:23;100141.63;;;31.41;47.31
71145;BME280;58812;47.698;17.726;2023-07-13T10:27:13;100134.81;;;30.69;49.86
71145;BME280;58812;47.698;17.726;2023-07-13T10:29:47;100141.66;;;30.81;49.60
71145;BME280;58812;47.698;17.726;2023-07-13T10:32:13;100140.19;;;29.43;50.73
71145;BME280;58812;47.698;17.726;2023-07-13T10:34:44;100149.25;;;29.18;52.03
71145;BME280;58812;47.698;17.726;2023-07-13T10:37:37;100145.34;;;29.04;51.56
71145;BME280;58812;47.698;17.726;2023-07-13T10:40:05;100150.41;;;29.52;50.30
71145;BME280;58812;47.698;17.726;2023-07-13T10:42:35;100151.50;;;30.23;47.47
71145;BME280;58812;47.698;17.726;2023-07-13T10:45:21;100137.19;;;29.80;49.25
71145;BME280;58812;47.698;17.726;2023-07-13T10:47:48;100126.91;;;30.37;48.12
71145;BME280;58812;47.698;17.726;2023-07-13T10:50:19;100120.91;;;29.89;50.22
71145;BME280;58812;47.698;17.726;2023-07-13T10:52:50;100115.22;;;30.60;48.61
71145;BME280;58812;47.698;17.726;2023-07-13T10:55:56;100126.28;;;31.15;47.52
71145;BME280;58812;47.698;17.726;2023-07-13T11:01:13;100128.66;;;30.82;46.86
71145;BME280;58812;47.698;17.726;2023-07-13T11:04:17;100130.72;;;31.10;45.46
71145;BME280;58812;47.698;17.726;2023-07-13T11:06:47;100124.59;;;30.59;45.61
71145;BME280;58812;47.698;17.726;2023-07-13T11:09:51;100128.16;;;31.24;45.86
71145;BME280;58812;47.698;17.726;2023-07-13T11:17:48;100113.19;;;30.81;44.88
71145;BME280;58812;47.698;17.726;2023-07-13T11:22:52;100109.81;;;31.73;44.15
71145;BME280;58812;47.698;17.726;2023-07-13T11:30:46;100108.00;;;31.92;43.77
71145;BME280;58812;47.698;17.726;2023-07-13T11:33:28;100107.19;;;31.92;43.15
71145;BME280;58812;47.698;17.726;2023-07-13T11:40:54;100107.47;;;32.43;41.83
71145;BME280;58812;47.698;17.726;2023-07-13T11:43:20;100097.97;;;32.49;42.21
71145;BME280;58812;47.698;17.726;2023-07-13T11:45:49;100099.94;;;32.20;42.71
71145;BME280;58812;47.698;17.726;2023-07-13T11:48:28;100085.59;;;31.54;45.55
71145;BME280;58812;47.698;17.726;2023-07-13T11:50:58;100104.25;;;32.31;43.52
71145;BME280;58812;47.698;17.726;2023-07-13T11:53:28;100108.25;;;32.20;43.04
71145;BME280;58812;47.698;17.726;2023-07-13T11:55:55;100126.19;;;32.27;42.65
71145;BME280;58812;47.698;17.726;2023-07-13T11:58:23;100113.59;;;32.40;42.12
71145;BME280;58812;47.698;17.726;2023-07-13T12:00:50;100112.50;;;31.09;43.29
71145;BME280;58812;47.698;17.726;2023-07-13T12:03:21;100103.22;;;31.69;43.42
71145;BME280;58812;47.698;17.726;2023-07-13T12:06:04;100106.62;;;32.42;41.38
71145;BME280;58812;47.698;17.726;2023-07-13T12:08:38;100103.34;;;32.40;40.78
71145;BME280;58812;47.698;17.726;2023-07-13T12:11:14;100093.12;;;32.36;41.69
71145;BME280;58812;47.698;17.726;2023-07-13T12:13:40;100080.50;;;32.01;42.43
71145;BME280;58812;47.698;17.726;2023-07-13T12:16:17;100087.78;;;32.45;42.57
71145;BME280;58812;47.698;17.726;2023-07-13T12:18:47;100091.16;;;32.12;42.20
71145;BME280;58812;47.698;17.726;2023-07-13T12:21:16;100083.25;;;32.25;42.59
71145;BME280;58812;47.698;17.726;2023-07-13T12:23:43;100083.34;;;32.86;41.55
71145;BME280;58812;47.698;17.726;2023-07-13T12:26:10;100093.34;;;33.06;41.26
71145;BME280;58812;47.698;17.726;2023-07-13T12:28:39;100073.12;;;33.38;40.76
71145;BME280;58812;47.698;17.726;2023-07-13T12:31:29;100064.31;;;32.37;43.05
71145;BME280;58812;47.698;17.726;2023-07-13T12:34:02;100066.56;;;31.48;43.65
71145;BME280;58812;47.698;17.726;2023-07-13T12:36:33;100073.03;;;31.38;44.30
71145;BME280;58812;47.698;17.726;2023-07-13T12:39:29;100066.47;;;32.83;42.30
71145;BME280;58812;47.698;17.726;2023-07-13T12:42:17;100064.19;;;32.90;41.21
71145;BME280;58812;47.698;17.726;2023-07-13T12:44:46;100050.56;;;32.51;42.35
71145;BME280;58812;47.698;17.726;2023-07-13T12:47:13;100057.75;;;32.04;43.34
71145;BME280;58812;47.698;17.726;2023-07-13T12:49:50;100066.91;;;32.04;44.04
71145;BME280;58812;47.698;17.726;2023-07-13T12:52:24;100062.69;;;31.78;42.32
71145;BME280;58812;47.698;17.726;2023-07-13T12:54:57;100056.38;;;31.72;41.31
71145;BME280;58812;47.698;17.726;2023-07-13T12:57:23;100059.59;;;31.21;44.43
71145;BME280;58812;47.698;17.726;2023-07-13T12:59:52;100060.13;;;30.84;44.59
71145;BME280;58812;47.698;17.726;2023-07-13T13:02:26;100056.66;;;31.42;43.74
71145;BME280;58812;47.698;17.726;2023-07-13T13:04:55;100054.37;;;31.15;43.45
71145;BME280;58812;47.698;17.726;2023-07-13T13:07:21;100036.25;;;31.37;43.74
71145;BME280;58812;47.698;17.726;2023-07-13T13:09:46;100047.31;;;30.98;44.21
71145;BME280;58812;47.698;17.726;2023-07-13T13:12:12;100047.47;;;30.73;44.11
71145;BME280;58812;47.698;17.726;2023-07-13T13:14:38;100057.91;;;30.21;45.75
71145;BME280;58812;47.698;17.726;2023-07-13T13:17:18;100059.28;;;31.28;44.23
71145;BME280;58812;47.698;17.726;2023-07-13T13:19:44;100042.16;;;31.26;44.72
71145;BME280;58812;47.698;17.726;2023-07-13T13:22:10;100046.66;;;30.62;44.85
71145;BME280;58812;47.698;17.726;2023-07-13T13:24:36;100042.62;;;31.38;44.17
71145;BME280;58812;47.698;17.726;2023-07-13T13:27:02;100056.06;;;31.10;44.67
71145;BME280;58812;47.698;17.726;2023-07-13T13:29:27;100047.97;;;30.80;44.09
71145;BME280;58812;47.698;17.726;2023-07-13T13:35:32;100048.09;;;31.04;43.77
71145;BME280;58812;47.698;17.726;2023-07-13T13:37:58;100044.81;;;31.02;43.69
71145;BME280;58812;47.698;17.726;2023-07-13T13:40:23;100042.19;;;31.16;43.62
71145;BME280;58812;47.698;17.726;2023-07-13T13:42:48;100038.66;;;31.10;43.66
71145;BME280;58812;47.698;17.726;2023-07-13T13:45:14;100034.84;;;31.01;44.34
71145;BME280;58812;47.698;17.726;2023-07-13T13:47:43;100032.75;;;31.56;43.73
71145;BME280;58812;47.698;17.726;2023-07-13T13:50:20;100038.03;;;31.52;43.03
71145;BME280;58812;47.698;17.726;2023-07-13T13:52:48;100042.22;;;31.79;42.62
71145;BME280;58812;47.698;17.726;2023-07-13T13:55:18;100044.78;;;31.70;43.01
71145;BME280;58812;47.698;17.726;2023-07-13T13:57:45;100042.00;;;31.41;43.80
71145;BME280;58812;47.698;17.726;2023-07-13T14:00:12;100047.94;;;30.90;44.13
71145;BME280;58812;47.698;17.726;2023-07-13T14:02:41;100044.56;;;31.37;43.70
71145;BME280;58812;47.698;17.726;2023-07-13T14:05:11;100055.09;;;30.91;43.57
71145;BME280;58812;47.698;17.726;2023-07-13T14:07:37;100051.91;;;30.69;43.82
71145;BME280;58812;47.698;17.726;2023-07-13T14:10:11;100052.38;;;30.86;44.12
71145;BME280;58812;47.698;17.726;2023-07-13T14:12:37;100054.50;;;30.94;44.04
71145;BME280;58812;47.698;17.726;2023-07-13T14:15:03;100058.66;;;30.97;44.07
71145;BME280;58812;47.698;17.726;2023-07-13T14:17:29;100068.41;;;30.24;45.89
71145;BME280;58812;47.698;17.726;2023-07-13T14:19:56;100073.72;;;29.80;45.88
71145;BME280;58812;47.698;17.726;2023-07-13T14:22:26;100073.06;;;30.24;46.61
71145;BME280;58812;47.698;17.726;2023-07-13T14:24:55;100070.28;;;30.29;45.90
71145;BME280;58812;47.698;17.726;2023-07-13T14:27:23;100074.22;;;30.02;45.74
71145;BME280;58812;47.698;17.726;2023-07-13T14:29:49;100071.47;;;30.13;46.26
71145;BME280;58812;47.698;17.726;2023-07-13T14:32:15;100072.50;;;30.37;47.38
71145;BME280;58812;47.698;17.726;2023-07-13T14:34:40;100076.22;;;30.67;46.00
71145;BME280;58812;47.698;17.726;2023-07-13T14:37:13;100073.38;;;30.87;46.85
71145;BME280;58812;47.698;17.726;2023-07-13T14:39:43;100080.84;;;30.01;46.58
71145;BME280;58812;47.698;17.726;2023-07-13T14:42:10;100080.28;;;30.04;45.17
71145;BME280;58812;47.698;17.726;2023-07-13T14:44:35;100072.28;;;30.18;44.91
71145;BME280;58812;47.698;17.726;2023-07-13T14:47:03;100072.06;;;29.69;42.34
71145;BME280;58812;47.698;17.726;2023-07-13T14:49:32;100064.34;;;29.61;43.65
71145;BME280;58812;47.698;17.726;2023-07-13T14:52:00;100074.28;;;29.36;43.44
71145;BME280;58812;47.698;17.726;2023-07-13T14:54:26;100067.63;;;29.22;44.79
71145;BME280;58812;47.698;17.726;2023-07-13T14:56:52;100075.66;;;29.23;44.43
71145;BME280;58812;47.698;17.726;2023-07-13T14:59:18;100072.34;;;29.32;45.13
71145;BME280;58812;47.698;17.726;2023-07-13T15:01:50;100076.47;;;29.49;45.79
71145;BME280;58812;47.698;17.726;2023-07-13T15:04:16;100070.41;;;29.37;45.61
71145;BME280;58812;47.698;17.726;2023-07-13T15:07:13;100069.84;;;29.15;45.86
71145;BME280;58812;47.698;17.726;2023-07-13T15:09:41;100059.28;;;28.86;44.87
71145;BME280;58812;47.698;17.726;2023-07-13T15:12:07;100067.56;;;28.91;45.53
71145;BME280;58812;47.698;17.726;2023-07-13T15:14:33;100064.75;;;28.71;45.29
71145;BME280;58812;47.698;17.726;2023-07-13T15:16:59;100067.50;;;28.66;45.35
71145;BME280;58812;47.698;17.726;2023-07-13T15:19:25;100061.16;;;28.65;46.30
71145;BME280;58812;47.698;17.726;2023-07-13T15:21:52;100054.53;;;28.61;47.36
71145;BME280;58812;47.698;17.726;2023-07-13T15:24:20;100043.22;;;28.53;46.63
71145;BME280;58812;47.698;17.726;2023-07-13T15:26:46;100037.97;;;28.51;46.83
71145;BME280;58812;47.698;17.726;2023-07-13T15:29:14;100032.53;;;28.66;47.15
71145;BME280;58812;47.698;17.726;2023-07-13T15:31:40;100047.66;;;28.69;47.53
71145;BME280;58812;47.698;17.726;2023-07-13T15:34:11;100050.94;;;28.56;48.16
71145;BME280;58812;47.698;17.726;2023-07-13T15:36:38;100060.84;;;28.46;48.94
71145;BME280;58812;47.698;17.726;2023-07-13T15:39:03;100058.31;;;28.45;49.35
71145;BME280;58812;47.698;17.726;2023-07-13T15:41:29;100058.03;;;28.36;50.03